createdAt,value
2022-10-11T00:00:15.814Z,10.60
2022-10-11T00:02:42.524Z,8.88
2022-10-11T00:05:09.904Z,12.00
2022-10-11T00:07:37.526Z,11.10
2022-10-11T00:10:08.014Z,10.38
2022-10-11T00:12:35.533Z,10.60
2022-10-11T00:15:02.249Z,12.02
2022-10-11T00:17:28.833Z,11.43
2022-10-11T00:19:55.955Z,11.23
2022-10-11T00:22:22.884Z,10.93
2022-10-11T00:24:49.541Z,11.00
2022-10-11T00:27:17.572Z,10.80
2022-10-11T00:29:44.418Z,9.77
2022-10-11T00:32:11.117Z,11.70
2022-10-11T00:34:38.158Z,13.15
2022-10-11T00:37:05.043Z,11.65
2022-10-11T00:39:31.703Z,11.27
2022-10-11T00:41:58.680Z,14.18
2022-10-11T00:44:29.125Z,11.82
2022-10-11T00:47:00.320Z,8.98
2022-10-11T00:49:34.179Z,11.18
2022-10-11T00:52:03.558Z,12.35
2022-10-11T00:54:34.208Z,10.27
2022-10-11T00:57:05.562Z,9.95
2022-10-11T00:59:37.773Z,10.38
2022-10-11T01:02:05.795Z,11.95
2022-10-11T01:04:32.957Z,9.10
2022-10-11T01:07:00.164Z,11.32
2022-10-11T01:09:27.026Z,9.38
2022-10-11T01:11:56.339Z,9.98
2022-10-11T01:14:54.039Z,11.40
2022-10-11T01:17:30.192Z,11.57
2022-10-11T01:20:26.274Z,10.45
2022-10-11T01:23:23.372Z,9.40
2022-10-11T01:26:10.011Z,9.77
2022-10-11T01:28:46.278Z,9.43
2022-10-11T01:31:21.873Z,10.98
2022-10-11T01:33:54.532Z,11.60
2022-10-11T01:36:27.950Z,11.45
2022-10-11T01:39:00.507Z,11.93
2022-10-11T01:41:31.342Z,10.82
2022-10-11T01:44:01.635Z,11.43
2022-10-11T01:46:30.830Z,9.55
2022-10-11T01:49:00.026Z,8.65
2022-10-11T01:51:30.201Z,10.18
2022-10-11T01:54:10.519Z,9.13
2022-10-11T01:57:00.929Z,9.10
2022-10-11T01:59:41.412Z,9.55
2022-10-11T02:02:27.035Z,10.90
2022-10-11T02:04:57.777Z,10.50
2022-10-11T02:07:31.451Z,11.85
2022-10-11T02:10:06.903Z,10.32
2022-10-11T02:12:37.932Z,11.15
2022-10-11T02:15:09.341Z,8.93
2022-10-11T02:17:43.521Z,9.18
2022-10-11T02:20:14.322Z,8.40
2022-10-11T02:22:45.075Z,9.75
2022-10-11T02:25:16.176Z,10.32
2022-10-11T02:27:47.782Z,10.80
2022-10-11T02:30:15.795Z,11.55
2022-10-11T02:32:46.677Z,8.57
2022-10-11T02:35:14.118Z,8.48
2022-10-11T02:37:43.452Z,11.20
2022-10-11T02:40:16.690Z,8.93
2022-10-11T02:42:48.239Z,10.18
2022-10-11T02:45:18.323Z,9.30
2022-10-11T02:47:47.717Z,12.80
2022-10-11T02:50:15.708Z,10.57
2022-10-11T02:52:42.540Z,10.45
2022-10-11T02:55:10.482Z,10.90
2022-10-11T02:57:37.072Z,8.95
2022-10-11T03:00:04.286Z,8.85
2022-10-11T03:02:30.913Z,9.35
2022-10-11T03:04:58.897Z,8.52
2022-10-11T03:07:25.566Z,9.75
2022-10-11T03:09:52.216Z,11.02
2022-10-11T03:12:18.893Z,8.45
2022-10-11T03:14:45.561Z,9.63
2022-10-11T03:17:34.996Z,9.15
2022-10-11T03:20:00.368Z,7.97
2022-10-11T03:22:26.947Z,8.43
2022-10-11T03:24:53.562Z,8.73
2022-10-11T03:27:20.276Z,13.48
2022-10-11T03:29:46.909Z,11.52
2022-10-11T03:32:13.533Z,9.85
2022-10-11T03:34:40.204Z,8.85
2022-10-11T03:37:08.166Z,8.90
2022-10-11T03:39:35.007Z,9.50
2022-10-11T03:42:01.567Z,8.55
2022-10-11T03:44:28.226Z,8.90
2022-10-11T03:46:55.339Z,9.85
2022-10-11T03:49:21.920Z,10.05
2022-10-11T03:51:48.576Z,9.00
2022-10-11T03:54:16.549Z,8.85
2022-10-11T03:56:43.176Z,9.20
2022-10-11T03:59:10.663Z,10.40
2022-10-11T04:01:38.500Z,9.13
2022-10-11T04:04:07.057Z,12.15
2022-10-11T04:06:33.736Z,8.90
2022-10-11T04:09:00.360Z,10.18
2022-10-11T04:11:28.542Z,9.15
2022-10-11T04:13:55.229Z,10.18
2022-10-11T04:16:21.980Z,10.43
2022-10-11T04:18:48.643Z,7.93
2022-10-11T04:21:15.322Z,8.93
2022-10-11T04:23:42.287Z,9.10
2022-10-11T04:26:09.229Z,10.75
2022-10-11T04:28:37.335Z,10.50
2022-10-11T04:31:05.499Z,11.20
2022-10-11T04:33:32.131Z,8.20
2022-10-11T04:35:58.826Z,9.75
2022-10-11T04:38:25.492Z,11.63
2022-10-11T04:40:52.141Z,9.15
2022-10-11T04:43:19.106Z,10.75
2022-10-11T04:45:47.091Z,9.38
2022-10-11T04:48:14.296Z,10.18
2022-10-11T04:50:40.918Z,11.55
2022-10-11T04:53:07.636Z,9.13
2022-10-11T04:55:34.301Z,10.73
2022-10-11T04:58:02.256Z,10.25
2022-10-11T05:00:29.053Z,9.93
2022-10-11T05:02:57.514Z,9.57
2022-10-11T05:05:24.233Z,10.75
2022-10-11T05:07:50.917Z,10.00
2022-10-11T05:10:17.702Z,9.30
2022-10-11T05:12:44.412Z,10.00
2022-10-11T05:15:11.108Z,11.52
2022-10-11T05:17:37.788Z,10.23
2022-10-11T05:20:07.093Z,10.43
2022-10-11T05:22:33.823Z,9.88
2022-10-11T05:25:00.387Z,10.93
2022-10-11T05:27:27.298Z,12.05
2022-10-11T05:29:53.897Z,10.25
2022-10-11T05:32:20.583Z,9.35
2022-10-11T05:34:47.275Z,8.77
2022-10-11T05:37:15.274Z,9.80
2022-10-11T05:39:41.858Z,8.88
2022-10-11T05:42:10.063Z,9.07
2022-10-11T05:44:36.771Z,9.63
2022-10-11T05:47:03.521Z,8.32
2022-10-11T05:49:30.378Z,8.93
2022-10-11T05:51:56.971Z,9.18
2022-10-11T05:54:25.327Z,9.50
2022-10-11T05:56:51.929Z,8.93
2022-10-11T05:59:18.500Z,9.48
2022-10-11T06:01:45.240Z,10.68
2022-10-11T06:04:11.884Z,9.25
2022-10-11T06:06:38.669Z,9.23
2022-10-11T06:09:05.316Z,9.07
2022-10-11T06:11:33.280Z,9.35
2022-10-11T06:14:00.077Z,11.05
2022-10-11T06:16:27.260Z,9.52
2022-10-11T06:18:54.869Z,9.35
2022-10-11T06:21:21.663Z,10.57
2022-10-11T06:23:49.586Z,9.00
2022-10-11T06:26:17.359Z,10.18
2022-10-11T06:28:46.196Z,9.25
2022-10-11T06:33:39.809Z,10.38
2022-10-11T06:36:09.722Z,9.85
2022-10-11T06:38:39.831Z,9.77
2022-10-11T06:41:10.813Z,10.15
2022-10-11T06:43:37.535Z,8.98
2022-10-11T06:46:06.157Z,11.15
2022-10-11T06:51:00.562Z,9.55
2022-10-11T06:53:28.215Z,9.48
2022-10-11T06:56:01.166Z,9.80
2022-10-11T06:58:28.448Z,11.68
2022-10-11T07:00:55.324Z,9.65
2022-10-11T07:03:23.377Z,10.93
2022-10-11T07:05:50.029Z,9.10
2022-10-11T07:08:16.623Z,11.23
2022-10-11T07:10:43.409Z,9.98
2022-10-11T07:13:13.532Z,9.52
2022-10-11T07:15:42.942Z,10.63
2022-10-11T07:18:09.504Z,9.73
2022-10-11T07:20:37.533Z,10.45
2022-10-11T07:23:04.571Z,9.80
2022-10-11T07:25:32.066Z,9.10
2022-10-11T07:27:58.673Z,10.55
2022-10-11T07:30:25.358Z,9.77
2022-10-11T07:32:51.941Z,10.48
2022-10-11T07:35:18.604Z,11.10
2022-10-11T07:37:46.526Z,9.23
2022-10-11T07:40:13.182Z,10.55
2022-10-11T07:42:39.968Z,10.18
2022-10-11T07:45:07.215Z,10.45
2022-10-11T07:47:33.779Z,9.90
2022-10-11T07:50:01.096Z,10.55
2022-10-11T07:52:27.754Z,10.70
2022-10-11T07:54:55.825Z,10.48
2022-10-11T07:57:22.548Z,14.60
2022-10-11T07:59:50.375Z,13.48
2022-10-11T08:02:18.063Z,10.27
2022-10-11T08:04:44.635Z,12.27
2022-10-11T08:07:11.320Z,11.55
2022-10-11T08:09:38.073Z,9.60
2022-10-11T08:12:06.375Z,9.60
2022-10-11T08:14:32.961Z,10.75
2022-10-11T08:16:59.868Z,9.57
2022-10-11T08:19:26.496Z,10.15
2022-10-11T08:21:53.100Z,9.32
2022-10-11T08:24:21.082Z,9.95
2022-10-11T08:26:48.129Z,8.70
2022-10-11T08:29:16.158Z,10.73
2022-10-11T08:31:44.520Z,10.07
2022-10-11T08:34:11.305Z,8.75
2022-10-11T08:36:38.371Z,9.10
2022-10-11T08:39:05.673Z,9.82
2022-10-11T08:41:40.980Z,10.55
2022-10-11T08:44:58.234Z,9.73
2022-10-11T08:47:27.305Z,9.05
2022-10-11T08:49:55.353Z,11.02
2022-10-11T08:52:25.176Z,9.90
2022-10-11T08:54:56.266Z,11.00
2022-10-11T08:57:26.011Z,10.45
2022-10-11T08:59:57.820Z,12.68
2022-10-11T09:03:06.482Z,8.18
2022-10-11T09:05:34.287Z,9.40
2022-10-11T09:08:07.971Z,11.05
2022-10-11T09:10:53.400Z,9.07
2022-10-11T09:13:41.627Z,10.70
2022-10-11T09:16:18.985Z,10.32
2022-10-11T09:19:09.167Z,10.45
2022-10-11T09:21:42.837Z,10.05
2022-10-11T09:24:24.825Z,9.63
2022-10-11T09:26:56.178Z,9.90
2022-10-11T09:29:45.432Z,9.82
2022-10-11T09:32:16.153Z,10.80
2022-10-11T09:34:43.405Z,8.30
2022-10-11T09:37:21.652Z,9.57
2022-10-11T09:39:56.653Z,12.88
2022-10-11T09:42:23.463Z,10.27
2022-10-11T09:44:51.555Z,9.88
2022-10-11T09:47:21.883Z,10.05
2022-10-11T09:49:52.891Z,11.40
2022-10-11T09:52:21.815Z,10.85
2022-10-11T09:54:51.056Z,9.98
2022-10-11T09:57:21.006Z,11.27
2022-10-11T10:00:00.511Z,10.15
2022-10-11T10:02:29.423Z,9.32
2022-10-11T10:05:03.493Z,9.23
2022-10-11T10:07:32.572Z,10.35
2022-10-11T10:09:59.631Z,9.88
2022-10-11T10:12:29.186Z,9.98
2022-10-11T10:15:03.456Z,7.35
2022-10-11T10:17:32.923Z,10.45
2022-10-11T10:20:00.626Z,8.75
2022-10-11T10:22:29.969Z,10.70
2022-10-11T10:24:58.704Z,7.72
2022-10-11T10:27:28.284Z,10.73
2022-10-11T10:30:15.990Z,9.88
2022-10-11T10:32:49.148Z,9.77
2022-10-11T10:35:27.467Z,7.40
2022-10-11T10:38:05.384Z,8.73
2022-10-11T10:40:39.162Z,8.17
2022-10-11T10:43:06.072Z,10.88
2022-10-11T10:45:43.183Z,9.10
2022-10-11T10:48:22.481Z,9.23
2022-10-11T10:50:54.611Z,9.77
2022-10-11T10:53:27.852Z,9.10
2022-10-11T10:56:05.172Z,8.30
2022-10-11T10:58:47.603Z,7.57
2022-10-11T11:01:19.262Z,9.85
2022-10-11T11:03:55.799Z,10.52
2022-10-11T11:06:35.622Z,12.60
2022-10-11T11:09:17.767Z,8.63
2022-10-11T11:11:56.827Z,8.63
2022-10-11T11:14:33.703Z,7.32
2022-10-11T11:17:11.249Z,7.78
2022-10-11T11:19:53.791Z,9.02
2022-10-11T11:22:34.480Z,9.82
2022-10-11T11:25:14.720Z,8.35
2022-10-11T11:27:55.657Z,11.32
2022-10-11T11:30:25.514Z,9.48
2022-10-11T11:33:04.003Z,9.18
2022-10-11T11:35:38.409Z,12.00
2022-10-11T11:38:18.892Z,9.55
2022-10-11T11:40:51.972Z,7.82
2022-10-11T11:43:25.206Z,8.13
2022-10-11T11:45:55.396Z,8.07
2022-10-11T11:48:24.823Z,8.63
2022-10-11T11:51:00.398Z,7.93
2022-10-11T11:53:44.568Z,8.23
2022-10-11T11:56:23.004Z,9.13
2022-10-11T11:59:03.076Z,7.00
2022-10-11T12:01:37.568Z,8.88
2022-10-11T12:04:09.388Z,8.30
2022-10-11T12:06:47.883Z,8.77
2022-10-11T12:09:23.106Z,8.75
2022-10-11T12:11:55.722Z,6.72
2022-10-11T12:14:35.123Z,11.45
2022-10-11T12:17:20.002Z,7.60
2022-10-11T12:20:14.689Z,8.85
2022-10-11T12:22:54.214Z,8.43
2022-10-11T12:25:40.754Z,9.27
2022-10-11T12:28:48.786Z,8.25
2022-10-11T12:31:23.511Z,7.38
2022-10-11T12:33:54.215Z,8.45
2022-10-11T12:36:39.822Z,10.27
2022-10-11T12:39:49.405Z,8.55
2022-10-11T12:42:32.934Z,7.15
2022-10-11T12:45:29.406Z,9.25
2022-10-11T12:48:07.604Z,7.15
2022-10-11T12:50:48.616Z,8.07
2022-10-11T12:53:30.368Z,9.63
2022-10-11T12:56:01.161Z,7.20
2022-10-11T12:58:34.031Z,6.85
2022-10-11T13:01:23.255Z,7.40
2022-10-11T13:03:58.210Z,7.10
2022-10-11T13:06:28.700Z,6.93
2022-10-11T13:09:00.623Z,9.18
2022-10-11T13:11:32.622Z,9.20
2022-10-11T13:14:07.867Z,6.35
2022-10-11T13:16:48.410Z,6.80
2022-10-11T13:19:15.449Z,9.43
2022-10-11T13:21:42.248Z,8.00
2022-10-11T13:24:12.946Z,5.07
2022-10-11T13:26:40.788Z,9.18
2022-10-11T13:29:16.761Z,8.00
2022-10-11T13:31:47.491Z,6.50
2022-10-11T13:34:16.739Z,6.53
2022-10-11T13:36:47.837Z,6.65
2022-10-11T13:39:30.983Z,5.25
2022-10-11T13:41:59.656Z,9.82
2022-10-11T13:44:28.189Z,8.05
2022-10-11T13:46:55.855Z,7.25
2022-10-11T13:49:28.252Z,7.38
2022-10-11T13:51:59.529Z,10.38
2022-10-11T13:54:48.834Z,7.72
2022-10-11T13:57:15.441Z,9.57
2022-10-11T13:59:44.364Z,8.00
2022-10-11T14:02:20.089Z,6.72
2022-10-11T14:04:48.814Z,6.40
2022-10-11T14:09:48.944Z,8.30
2022-10-11T14:12:32.281Z,6.60
2022-10-11T14:15:01.486Z,8.35
2022-10-11T14:17:42.455Z,7.03
2022-10-11T14:20:16.726Z,7.07
2022-10-11T14:22:43.703Z,7.75
2022-10-11T14:25:12.994Z,8.23
2022-10-11T14:27:39.826Z,8.90
2022-10-11T14:30:31.206Z,5.90
2022-10-11T14:33:00.946Z,8.23
2022-10-11T14:35:32.347Z,9.32
2022-10-11T14:37:59.482Z,5.05
2022-10-11T14:40:30.414Z,7.68
2022-10-11T14:42:57.395Z,6.18
2022-10-11T14:45:25.722Z,8.10
2022-10-11T14:47:55.496Z,6.20
2022-10-11T14:50:31.605Z,6.47
2022-10-11T14:52:58.695Z,7.50
2022-10-11T14:55:25.475Z,9.93
2022-10-11T14:57:52.475Z,6.60
2022-10-11T15:00:22.370Z,7.82
2022-10-11T15:02:50.882Z,8.38
2022-10-11T15:05:18.193Z,6.47
2022-10-11T15:07:45.142Z,7.75
2022-10-11T15:10:19.899Z,7.78
2022-10-11T15:12:48.122Z,9.52
2022-10-11T15:15:20.580Z,6.32
2022-10-11T15:17:49.053Z,6.22
2022-10-11T15:20:23.030Z,5.15
2022-10-11T15:22:49.778Z,7.13
2022-10-11T15:25:17.918Z,4.70
2022-10-11T15:27:45.127Z,7.03
2022-10-11T15:30:19.800Z,6.10
2022-10-11T15:32:47.164Z,9.55
2022-10-11T15:35:14.719Z,6.95
2022-10-11T15:37:43.064Z,6.38
2022-10-11T15:40:16.501Z,8.15
2022-10-11T15:42:43.487Z,8.38
2022-10-11T15:45:10.788Z,11.23
2022-10-11T15:47:37.469Z,8.80
2022-10-11T15:50:05.129Z,6.97
2022-10-11T15:52:31.849Z,7.15
2022-10-11T15:54:59.861Z,6.82
2022-10-11T15:57:26.630Z,6.15
2022-10-11T15:59:53.179Z,6.75
2022-10-11T16:02:19.793Z,7.22
2022-10-11T16:04:46.381Z,7.97
2022-10-11T16:07:13.136Z,8.18
2022-10-11T16:09:39.791Z,7.78
2022-10-11T16:12:08.517Z,8.05
2022-10-11T16:17:04.058Z,9.93
2022-10-11T16:19:30.727Z,7.47
2022-10-11T16:21:57.362Z,7.25
2022-10-11T16:24:24.033Z,7.32
2022-10-11T16:26:51.254Z,7.35
2022-10-11T16:29:19.183Z,7.03
2022-10-11T16:31:45.814Z,6.97
2022-10-11T16:34:12.389Z,7.93
2022-10-11T16:36:42.846Z,7.18
2022-10-11T16:39:13.246Z,8.52
2022-10-11T16:41:41.211Z,10.57
2022-10-11T16:44:11.240Z,9.10
2022-10-11T16:46:39.395Z,7.97
2022-10-11T16:49:07.410Z,9.10
2022-10-11T16:51:34.043Z,9.27
2022-10-11T16:54:01.147Z,9.95
2022-10-11T16:56:28.363Z,9.13
2022-10-11T16:58:55.492Z,7.80
2022-10-11T17:01:22.424Z,8.13
2022-10-11T17:03:53.410Z,8.23
2022-10-11T17:06:20.280Z,8.82
2022-10-11T17:08:47.076Z,8.23
2022-10-11T17:11:13.930Z,6.82
2022-10-11T17:13:40.733Z,9.90
2022-10-11T17:16:08.372Z,8.63
2022-10-11T17:18:35.676Z,10.10
2022-10-11T17:21:06.039Z,9.48
2022-10-11T17:23:33.770Z,7.05
2022-10-11T17:26:05.220Z,12.60
2022-10-11T17:28:35.457Z,10.63
2022-10-11T17:31:04.798Z,8.20
2022-10-11T17:33:31.820Z,8.00
2022-10-11T17:36:00.523Z,9.15
2022-10-11T17:40:59.538Z,7.45
2022-10-11T17:43:26.199Z,8.02
2022-10-11T17:45:55.016Z,9.95
2022-10-11T17:50:50.668Z,9.05
2022-10-11T17:53:18.083Z,7.45
2022-10-11T17:55:46.264Z,8.98
2022-10-11T17:58:12.977Z,10.32
2022-10-11T18:00:40.009Z,9.18
2022-10-11T18:03:06.918Z,8.52
2022-10-11T18:05:33.571Z,12.52
2022-10-11T18:08:00.140Z,9.50
2022-10-11T18:10:28.387Z,10.45
2022-10-11T18:12:56.360Z,9.35
2022-10-11T18:15:22.943Z,9.70
2022-10-11T18:17:49.757Z,10.77
2022-10-11T18:20:16.541Z,11.68
2022-10-11T18:22:43.503Z,11.38
2022-10-11T18:25:11.341Z,12.85
2022-10-11T18:27:38.293Z,14.38
2022-10-11T18:30:09.642Z,10.18
2022-10-11T18:32:36.479Z,12.75
2022-10-11T18:35:03.209Z,9.73
2022-10-11T18:37:29.974Z,13.13
2022-10-11T18:39:56.647Z,14.63
2022-10-11T18:42:23.297Z,18.25
2022-10-11T18:44:49.963Z,15.65
2022-10-11T18:47:18.338Z,15.18
2022-10-11T18:49:45.107Z,12.82
2022-10-11T18:52:15.343Z,13.07
2022-10-11T18:54:41.963Z,12.80
2022-10-11T18:57:08.591Z,11.50
2022-10-11T18:59:35.377Z,10.60
2022-10-11T19:02:04.066Z,11.35
2022-10-11T19:04:34.265Z,13.18
2022-10-11T19:07:00.944Z,11.60
2022-10-11T19:09:28.794Z,11.70
2022-10-11T19:11:57.429Z,10.75
2022-10-11T19:14:26.500Z,13.35
2022-10-11T19:16:53.313Z,12.85
2022-10-11T19:19:21.537Z,13.48
2022-10-11T19:21:49.910Z,14.80
2022-10-11T19:24:17.929Z,15.20
2022-10-11T19:26:44.819Z,12.97
2022-10-11T19:29:14.797Z,16.15
2022-10-11T19:31:42.860Z,14.82
2022-10-11T19:34:10.282Z,16.77
2022-10-11T19:36:37.974Z,19.52
2022-10-11T19:39:06.292Z,16.10
2022-10-11T19:41:33.454Z,13.95
2022-10-11T19:44:01.139Z,14.82
2022-10-11T19:49:17.729Z,15.25
2022-10-11T19:51:44.743Z,15.60
2022-10-11T19:54:14.427Z,14.70
2022-10-11T19:56:41.418Z,13.05
2022-10-11T19:59:08.273Z,11.60
2022-10-11T20:01:36.807Z,13.13
2022-10-11T20:04:06.175Z,11.57
2022-10-11T20:06:38.364Z,11.20
2022-10-11T20:09:27.853Z,11.93
2022-10-11T20:11:53.720Z,14.63
2022-10-11T20:14:20.826Z,12.82
2022-10-11T20:16:49.674Z,14.07
2022-10-11T20:21:42.879Z,11.95
2022-10-11T20:24:09.787Z,15.40
2022-10-11T20:26:36.486Z,13.27
2022-10-11T20:29:04.563Z,11.27
2022-10-11T20:31:34.550Z,10.85
2022-10-11T20:34:04.093Z,14.25
2022-10-11T20:36:32.675Z,13.25
2022-10-11T20:39:00.061Z,10.88
2022-10-11T20:41:28.578Z,12.65
2022-10-11T20:43:57.043Z,11.98
2022-10-11T20:46:27.885Z,11.45
2022-10-11T20:49:01.185Z,12.90
2022-10-11T20:51:29.268Z,15.00
2022-10-11T20:53:56.528Z,11.25
2022-10-11T20:56:23.677Z,12.10
2022-10-11T20:58:52.088Z,13.40
2022-10-11T21:01:20.544Z,12.90
2022-10-11T21:03:48.715Z,13.95
2022-10-11T21:06:15.526Z,13.40
2022-10-11T21:08:42.432Z,12.93
2022-10-11T21:11:09.915Z,14.30
2022-10-11T21:13:36.709Z,17.27
2022-10-11T21:16:04.471Z,17.35
2022-10-11T21:18:35.531Z,12.93
2022-10-11T21:21:08.537Z,14.40
2022-10-11T21:23:44.685Z,14.50
2022-10-11T21:26:16.976Z,14.93
2022-10-11T21:28:45.334Z,13.80
2022-10-11T21:31:13.699Z,15.20
2022-10-11T21:33:41.916Z,14.75
2022-10-11T21:36:12.980Z,14.85
2022-10-11T21:38:42.050Z,14.52
2022-10-11T21:41:12.426Z,13.55
2022-10-11T21:43:39.218Z,13.35
2022-10-11T21:46:10.463Z,14.32
2022-10-11T21:48:37.046Z,13.38
2022-10-11T21:51:04.346Z,15.18
2022-10-11T21:53:32.806Z,11.07
2022-10-11T21:56:01.551Z,13.35
2022-10-11T21:58:28.571Z,13.88
2022-10-11T22:00:55.186Z,11.73
2022-10-11T22:03:21.956Z,14.38
2022-10-11T22:05:48.617Z,12.52
2022-10-11T22:08:15.841Z,12.40
2022-10-11T22:10:45.095Z,11.90
2022-10-11T22:13:11.983Z,13.55
2022-10-11T22:15:39.637Z,12.02
2022-10-11T22:18:06.871Z,11.55
2022-10-11T22:20:33.928Z,11.73
2022-10-11T22:23:02.155Z,13.18
2022-10-11T22:25:28.835Z,12.55
2022-10-11T22:27:56.879Z,11.60
2022-10-11T22:30:23.465Z,10.63
2022-10-11T22:32:50.937Z,12.68
2022-10-11T22:35:17.514Z,10.05
2022-10-11T22:37:44.147Z,10.73
2022-10-11T22:40:11.166Z,12.07
2022-10-11T22:42:37.771Z,11.65
2022-10-11T22:45:06.829Z,11.48
2022-10-11T22:47:33.642Z,11.68
2022-10-11T22:50:00.653Z,10.60
2022-10-11T22:52:27.311Z,11.45
2022-10-11T22:54:53.929Z,12.65
2022-10-11T22:57:20.599Z,13.40
2022-10-11T22:59:47.167Z,9.90
2022-10-11T23:02:15.159Z,9.85
2022-10-11T23:04:41.727Z,11.00
2022-10-11T23:07:08.333Z,12.00
2022-10-11T23:09:34.912Z,13.15
2022-10-11T23:12:01.690Z,10.75
2022-10-11T23:14:28.371Z,11.85
2022-10-11T23:16:54.968Z,10.02
2022-10-11T23:19:25.498Z,11.23
2022-10-11T23:21:52.249Z,12.23
2022-10-11T23:24:18.823Z,11.90
2022-10-11T23:26:45.833Z,12.23
2022-10-11T23:29:12.795Z,12.88
2022-10-11T23:31:39.500Z,12.50
2022-10-11T23:34:06.904Z,13.60
2022-10-11T23:36:35.085Z,13.15
2022-10-11T23:39:01.707Z,12.75
2022-10-11T23:41:29.463Z,13.10
2022-10-11T23:43:57.423Z,11.57
2022-10-11T23:46:24.623Z,14.23
2022-10-11T23:48:51.320Z,13.15
2022-10-11T23:51:17.950Z,11.38
2022-10-11T23:53:45.927Z,12.88
2022-10-11T23:56:12.682Z,11.60
2022-10-11T23:58:39.770Z,13.35
